createdAt,value
2022-10-31T00:02:22.114Z,10.30
2022-10-31T00:05:08.045Z,10.00
2022-10-31T00:07:54.474Z,9.70
2022-10-31T00:10:43.719Z,9.90
2022-10-31T00:13:29.560Z,9.98
2022-10-31T00:16:20.089Z,9.90
2022-10-31T00:19:07.744Z,10.25
2022-10-31T00:21:53.615Z,10.45
2022-10-31T00:24:39.330Z,9.52
2022-10-31T00:27:24.977Z,9.90
2022-10-31T00:30:13.712Z,9.18
2022-10-31T00:33:00.521Z,10.27
2022-10-31T00:35:52.860Z,9.85
2022-10-31T00:38:38.648Z,10.70
2022-10-31T00:41:24.376Z,10.40
2022-10-31T00:44:09.872Z,9.95
2022-10-31T00:46:55.759Z,9.90
2022-10-31T00:49:41.243Z,10.40
2022-10-31T00:52:26.800Z,10.15
2022-10-31T00:55:12.220Z,10.15
2022-10-31T00:57:58.018Z,10.63
2022-10-31T01:00:46.795Z,9.57
2022-10-31T01:03:35.263Z,9.23
2022-10-31T01:06:20.592Z,10.32
2022-10-31T01:09:06.198Z,10.13
2022-10-31T01:11:51.711Z,9.38
2022-10-31T01:14:37.315Z,10.23
2022-10-31T01:17:23.163Z,9.82
2022-10-31T01:20:09.778Z,9.68
2022-10-31T01:22:55.677Z,9.63
2022-10-31T01:25:43.509Z,9.50
2022-10-31T01:28:29.041Z,10.20
2022-10-31T01:31:15.115Z,10.52
2022-10-31T01:34:01.497Z,9.85
2022-10-31T01:36:51.976Z,9.25
2022-10-31T01:39:37.863Z,10.27
2022-10-31T01:42:24.259Z,10.00
2022-10-31T01:45:12.095Z,10.80
2022-10-31T01:47:58.034Z,10.45
2022-10-31T01:50:48.610Z,10.27
2022-10-31T01:53:35.633Z,9.73
2022-10-31T01:56:22.404Z,9.90
2022-10-31T01:59:12.249Z,9.27
2022-10-31T02:02:00.480Z,8.52
2022-10-31T02:04:48.472Z,8.13
2022-10-31T02:07:49.352Z,8.10
2022-10-31T02:10:37.881Z,7.43
2022-10-31T02:16:14.938Z,7.50
2022-10-31T02:19:00.770Z,8.13
2022-10-31T02:22:03.280Z,8.20
2022-10-31T02:27:47.986Z,7.15
2022-10-31T02:31:01.407Z,6.97
2022-10-31T02:34:06.538Z,7.20
2022-10-31T02:37:07.495Z,7.30
2022-10-31T02:40:10.251Z,6.35
2022-10-31T02:43:42.608Z,6.82
2022-10-31T02:46:50.260Z,7.00
2022-10-31T02:50:00.821Z,7.53
2022-10-31T02:52:50.848Z,6.88
2022-10-31T02:55:36.720Z,6.03
2022-10-31T02:58:25.806Z,7.22
2022-10-31T03:01:27.158Z,7.35
2022-10-31T03:04:28.363Z,7.75
2022-10-31T03:07:34.952Z,7.50
2022-10-31T03:10:34.951Z,8.10
2022-10-31T03:13:46.065Z,8.05
2022-10-31T03:16:49.638Z,7.80
2022-10-31T03:22:30.534Z,7.85
2022-10-31T03:25:19.265Z,7.97
2022-10-31T03:28:06.766Z,7.88
2022-10-31T03:30:53.778Z,8.77
2022-10-31T03:33:42.869Z,7.65
2022-10-31T03:36:33.713Z,8.38
2022-10-31T03:39:21.651Z,8.25
2022-10-31T03:42:12.419Z,7.97
2022-10-31T03:45:24.091Z,7.55
2022-10-31T03:48:10.183Z,8.48
2022-10-31T03:51:00.823Z,8.90
2022-10-31T03:54:18.397Z,8.77
2022-10-31T03:57:10.808Z,8.43
2022-10-31T04:00:13.344Z,8.73
2022-10-31T04:03:12.660Z,8.40
2022-10-31T04:06:05.924Z,9.05
2022-10-31T04:09:00.172Z,8.43
2022-10-31T04:11:50.616Z,9.18
2022-10-31T04:14:55.850Z,8.77
2022-10-31T04:17:45.116Z,9.43
2022-10-31T04:20:33.697Z,9.32
2022-10-31T04:23:23.215Z,9.57
2022-10-31T04:26:12.721Z,9.68
2022-10-31T04:28:58.200Z,9.50
2022-10-31T04:31:45.836Z,9.48
2022-10-31T04:34:31.500Z,9.25
2022-10-31T04:37:16.953Z,9.10
2022-10-31T04:40:04.379Z,9.57
2022-10-31T04:42:59.753Z,9.27
2022-10-31T04:45:46.980Z,9.25
2022-10-31T04:48:33.630Z,8.90
2022-10-31T04:51:21.243Z,9.45
2022-10-31T04:54:07.605Z,8.43
2022-10-31T04:56:59.176Z,9.13
2022-10-31T04:59:46.497Z,9.43
2022-10-31T05:02:32.269Z,9.38
2022-10-31T05:05:21.244Z,9.68
2022-10-31T05:08:07.595Z,8.73
2022-10-31T05:10:53.101Z,9.50
2022-10-31T05:13:39.405Z,9.00
2022-10-31T05:16:48.097Z,8.93
2022-10-31T05:20:14.476Z,9.23
2022-10-31T05:23:35.507Z,8.63
2022-10-31T05:26:22.136Z,9.63
2022-10-31T05:29:07.598Z,7.97
2022-10-31T05:31:54.314Z,8.98
2022-10-31T05:34:59.856Z,9.18
2022-10-31T05:38:08.361Z,8.63
2022-10-31T05:41:06.733Z,8.68
2022-10-31T05:43:53.221Z,8.80
2022-10-31T05:46:43.735Z,9.18
2022-10-31T05:49:54.929Z,8.68
2022-10-31T05:53:06.195Z,9.23
2022-10-31T05:55:56.847Z,9.20
2022-10-31T05:58:42.545Z,8.80
2022-10-31T06:01:28.355Z,8.98
2022-10-31T06:04:16.705Z,9.30
2022-10-31T06:07:02.213Z,8.73
2022-10-31T06:09:48.018Z,8.93
2022-10-31T06:12:38.791Z,9.75
2022-10-31T06:18:26.579Z,9.60
2022-10-31T06:21:16.347Z,10.10
2022-10-31T06:24:06.388Z,10.55
2022-10-31T06:27:21.444Z,9.50
2022-10-31T06:30:08.557Z,9.07
2022-10-31T06:32:56.136Z,10.18
2022-10-31T06:35:47.435Z,9.63
2022-10-31T06:38:33.496Z,8.75
2022-10-31T06:41:19.951Z,9.73
2022-10-31T06:44:08.989Z,9.15
2022-10-31T06:47:13.361Z,9.23
2022-10-31T06:50:25.540Z,8.65
2022-10-31T06:53:12.222Z,7.82
2022-10-31T06:55:58.470Z,8.52
2022-10-31T06:58:45.209Z,8.75
2022-10-31T07:01:32.383Z,8.82
2022-10-31T07:04:18.468Z,8.70
2022-10-31T07:07:04.400Z,7.97
2022-10-31T07:09:50.732Z,7.72
2022-10-31T07:12:40.688Z,9.40
2022-10-31T07:15:28.248Z,8.18
2022-10-31T07:18:14.389Z,6.95
2022-10-31T07:21:00.265Z,6.72
2022-10-31T07:23:49.038Z,6.75
2022-10-31T07:26:53.508Z,6.07
2022-10-31T07:29:38.935Z,6.80
2022-10-31T07:32:24.569Z,6.40
2022-10-31T07:35:24.777Z,6.22
2022-10-31T07:38:16.207Z,6.85
2022-10-31T07:41:03.441Z,7.10
2022-10-31T07:43:51.313Z,7.70
2022-10-31T07:46:36.984Z,7.70
2022-10-31T07:49:41.562Z,8.57
2022-10-31T07:53:09.160Z,7.75
2022-10-31T07:56:04.103Z,7.50
2022-10-31T07:58:49.742Z,7.20
2022-10-31T08:01:35.159Z,7.50
2022-10-31T08:04:40.967Z,8.18
2022-10-31T08:07:45.341Z,7.82
2022-10-31T08:10:38.532Z,7.95
2022-10-31T08:13:24.176Z,7.13
2022-10-31T08:16:10.941Z,7.80
2022-10-31T08:19:08.152Z,8.23
2022-10-31T08:21:57.459Z,8.35
2022-10-31T08:24:43.097Z,7.88
2022-10-31T08:27:29.037Z,8.15
2022-10-31T08:30:18.311Z,7.07
2022-10-31T08:33:18.246Z,7.47
2022-10-31T08:36:33.032Z,7.72
2022-10-31T08:39:33.733Z,7.20
2022-10-31T08:42:19.355Z,7.78
2022-10-31T08:45:06.163Z,8.25
2022-10-31T08:47:53.045Z,8.70
2022-10-31T08:50:39.507Z,7.75
2022-10-31T08:53:27.028Z,7.93
2022-10-31T08:56:28.595Z,8.32
2022-10-31T08:59:14.192Z,7.68
2022-10-31T09:02:19.349Z,8.68
2022-10-31T09:05:05.473Z,8.75
2022-10-31T09:07:51.248Z,8.48
2022-10-31T09:10:38.013Z,8.10
2022-10-31T09:13:27.950Z,9.00
2022-10-31T09:16:36.692Z,6.82
2022-10-31T09:19:24.264Z,8.05
2022-10-31T09:22:09.952Z,7.72
2022-10-31T09:24:55.474Z,8.35
2022-10-31T09:27:41.572Z,7.88
2022-10-31T09:30:28.840Z,6.80
2022-10-31T09:33:15.259Z,7.13
2022-10-31T09:36:08.083Z,7.70
2022-10-31T09:38:59.092Z,8.25
2022-10-31T09:41:56.359Z,6.78
2022-10-31T09:44:50.233Z,6.30
2022-10-31T09:48:09.826Z,8.68
2022-10-31T09:51:13.954Z,8.70
2022-10-31T09:54:02.504Z,8.18
2022-10-31T09:56:48.735Z,8.43
2022-10-31T09:59:41.517Z,7.93
2022-10-31T10:02:38.002Z,7.53
2022-10-31T10:05:35.243Z,8.68
2022-10-31T10:08:31.929Z,8.35
2022-10-31T10:11:40.082Z,10.80
2022-10-31T10:14:39.888Z,12.90
2022-10-31T10:17:49.597Z,9.80
2022-10-31T10:21:04.274Z,9.90
2022-10-31T10:23:56.645Z,10.90
2022-10-31T10:26:47.407Z,9.30
2022-10-31T10:29:35.226Z,13.30
2022-10-31T10:32:25.197Z,14.32
2022-10-31T10:36:03.942Z,13.55
2022-10-31T10:39:01.595Z,14.70
2022-10-31T10:42:08.840Z,11.80
2022-10-31T10:45:13.783Z,11.48
2022-10-31T10:48:38.170Z,13.93
2022-10-31T10:52:02.633Z,12.98
2022-10-31T10:55:23.331Z,12.18
2022-10-31T10:58:10.667Z,11.52
2022-10-31T11:00:57.113Z,12.25
2022-10-31T11:03:43.035Z,13.35
2022-10-31T11:06:28.857Z,10.90
2022-10-31T11:09:17.787Z,12.88
2022-10-31T11:12:25.693Z,11.45
2022-10-31T11:15:24.000Z,13.75
2022-10-31T11:18:22.513Z,11.57
2022-10-31T11:21:29.305Z,12.30
2022-10-31T11:24:20.961Z,12.02
2022-10-31T11:27:21.554Z,12.13
2022-10-31T11:30:08.141Z,11.35
2022-10-31T11:32:53.850Z,11.70
2022-10-31T11:35:41.114Z,12.48
2022-10-31T11:38:35.542Z,11.10
2022-10-31T11:41:29.444Z,10.10
2022-10-31T11:44:21.213Z,8.88
2022-10-31T11:47:12.947Z,10.95
2022-10-31T11:50:01.931Z,11.57
2022-10-31T11:52:48.445Z,10.23
2022-10-31T11:55:38.131Z,12.60
2022-10-31T11:58:26.609Z,11.07
2022-10-31T12:01:27.681Z,10.15
2022-10-31T12:04:14.208Z,10.13
2022-10-31T12:07:00.356Z,9.90
2022-10-31T12:09:45.716Z,9.98
2022-10-31T12:12:37.308Z,11.00
2022-10-31T12:15:37.476Z,9.52
2022-10-31T12:18:55.141Z,9.55
2022-10-31T12:21:56.132Z,10.38
2022-10-31T12:24:59.199Z,11.57
2022-10-31T12:28:13.942Z,10.25
2022-10-31T12:31:37.611Z,9.00
2022-10-31T12:34:49.956Z,8.85
2022-10-31T12:37:48.127Z,9.95
2022-10-31T12:40:57.322Z,10.68
2022-10-31T12:44:06.752Z,10.82
2022-10-31T12:46:56.344Z,8.82
2022-10-31T12:50:07.477Z,9.23
2022-10-31T12:56:26.465Z,8.80
2022-10-31T12:59:22.008Z,9.20
2022-10-31T13:02:32.374Z,10.13
2022-10-31T13:05:17.871Z,8.88
2022-10-31T13:08:12.163Z,10.60
2022-10-31T13:11:23.573Z,8.90
2022-10-31T13:14:39.108Z,7.20
2022-10-31T13:17:42.465Z,8.60
2022-10-31T13:20:33.115Z,8.63
2022-10-31T13:26:50.501Z,8.00
2022-10-31T13:30:01.764Z,6.15
2022-10-31T13:32:56.616Z,7.53
2022-10-31T13:35:56.302Z,8.13
2022-10-31T13:39:11.227Z,7.50
2022-10-31T13:42:12.988Z,7.15
2022-10-31T13:45:19.064Z,8.23
2022-10-31T13:48:16.715Z,8.77
2022-10-31T13:51:08.683Z,8.05
2022-10-31T13:54:02.048Z,7.57
2022-10-31T13:56:52.960Z,6.28
2022-10-31T13:59:39.152Z,9.57
2022-10-31T14:02:34.567Z,8.85
2022-10-31T14:05:25.533Z,7.18
2022-10-31T14:08:21.626Z,7.15
2022-10-31T14:11:09.199Z,7.68
2022-10-31T14:13:57.592Z,8.45
2022-10-31T14:16:47.753Z,7.63
2022-10-31T14:19:36.229Z,7.00
2022-10-31T14:22:22.966Z,6.15
2022-10-31T14:25:27.013Z,8.13
2022-10-31T14:28:33.511Z,8.05
2022-10-31T14:31:40.744Z,9.40
2022-10-31T14:34:35.688Z,10.48
2022-10-31T14:37:30.514Z,8.95
2022-10-31T14:40:34.592Z,7.72
2022-10-31T14:43:29.320Z,7.50
2022-10-31T14:46:42.411Z,8.13
2022-10-31T14:49:49.199Z,7.75
2022-10-31T14:52:38.192Z,7.60
2022-10-31T14:55:25.484Z,7.63
2022-10-31T14:58:18.579Z,6.43
2022-10-31T15:01:05.724Z,6.95
2022-10-31T15:04:17.791Z,7.22
2022-10-31T15:07:20.353Z,6.68
2022-10-31T15:10:23.145Z,6.45
2022-10-31T15:13:19.462Z,7.47
2022-10-31T15:16:11.062Z,6.60
2022-10-31T15:19:00.600Z,6.68
2022-10-31T15:21:47.021Z,6.82
2022-10-31T15:24:39.689Z,5.45
2022-10-31T15:27:25.750Z,6.22
2022-10-31T15:30:23.705Z,5.82
2022-10-31T15:33:36.572Z,7.22
2022-10-31T15:39:16.682Z,6.95
2022-10-31T15:42:02.433Z,6.85
2022-10-31T15:44:59.662Z,7.43
2022-10-31T15:47:54.969Z,7.57
2022-10-31T15:50:46.327Z,7.55
2022-10-31T15:53:51.410Z,7.97
2022-10-31T15:56:36.908Z,8.27
2022-10-31T15:59:28.268Z,6.55
2022-10-31T16:02:16.039Z,8.88
2022-10-31T16:05:03.124Z,10.05
2022-10-31T16:07:53.051Z,9.82
2022-10-31T16:10:38.843Z,11.70
2022-10-31T16:13:29.616Z,13.30
2022-10-31T16:19:28.147Z,13.20
2022-10-31T16:22:21.023Z,16.67
2022-10-31T16:25:11.432Z,16.23
2022-10-31T16:28:04.519Z,14.38
2022-10-31T16:30:53.154Z,13.27
2022-10-31T16:33:38.783Z,14.32
2022-10-31T16:36:36.314Z,12.85
2022-10-31T16:39:22.490Z,12.82
2022-10-31T16:42:09.810Z,11.45
2022-10-31T16:44:55.584Z,11.90
2022-10-31T16:47:41.152Z,11.77
2022-10-31T16:50:28.054Z,10.13
2022-10-31T16:53:16.636Z,10.88
2022-10-31T16:56:04.669Z,10.30
2022-10-31T16:58:50.860Z,9.38
2022-10-31T17:01:36.832Z,9.48
2022-10-31T17:04:22.376Z,9.73
2022-10-31T17:07:08.340Z,8.52
2022-10-31T17:09:53.687Z,9.98
2022-10-31T17:12:41.936Z,10.75
2022-10-31T17:15:29.131Z,9.52
2022-10-31T17:18:16.488Z,9.20
2022-10-31T17:21:04.023Z,8.50
2022-10-31T17:23:52.397Z,9.20
2022-10-31T17:26:38.181Z,9.13
2022-10-31T17:29:23.556Z,8.90
2022-10-31T17:32:09.303Z,9.23
2022-10-31T17:34:55.122Z,8.40
2022-10-31T17:37:42.967Z,8.98
2022-10-31T17:40:28.525Z,10.43
2022-10-31T17:43:14.213Z,9.60
2022-10-31T17:46:01.269Z,8.93
2022-10-31T17:48:47.113Z,8.98
2022-10-31T17:51:32.996Z,8.80
2022-10-31T17:54:22.716Z,8.25
2022-10-31T17:57:08.496Z,8.90
2022-10-31T17:59:54.016Z,8.32
2022-10-31T18:02:39.659Z,8.18
2022-10-31T18:05:25.399Z,8.30
2022-10-31T18:08:10.860Z,8.48
2022-10-31T18:11:00.116Z,8.85
2022-10-31T18:13:45.814Z,9.40
2022-10-31T18:16:31.411Z,10.02
2022-10-31T18:19:17.451Z,11.43
2022-10-31T18:22:03.203Z,10.00
2022-10-31T18:24:49.127Z,11.00
2022-10-31T18:27:34.817Z,10.15
2022-10-31T18:30:20.538Z,10.68
2022-10-31T18:33:05.928Z,11.18
2022-10-31T18:35:51.759Z,11.15
2022-10-31T18:38:42.418Z,10.48
2022-10-31T18:41:28.040Z,11.07
2022-10-31T18:44:13.747Z,9.30
2022-10-31T18:46:59.380Z,10.85
2022-10-31T18:49:45.344Z,11.30
2022-10-31T18:52:32.288Z,10.52
2022-10-31T18:55:17.911Z,10.07
2022-10-31T18:58:03.563Z,10.27
2022-10-31T19:00:49.198Z,10.02
2022-10-31T19:03:35.303Z,10.45
2022-10-31T19:06:21.032Z,10.05
2022-10-31T19:09:10.755Z,10.45
2022-10-31T19:11:56.436Z,10.02
2022-10-31T19:14:42.113Z,10.13
2022-10-31T19:17:27.889Z,10.43
2022-10-31T19:20:14.348Z,11.60
2022-10-31T19:23:00.220Z,10.95
2022-10-31T19:25:45.858Z,11.43
2022-10-31T19:28:32.571Z,10.00
2022-10-31T19:31:19.019Z,9.73
2022-10-31T19:34:05.061Z,9.55
2022-10-31T19:36:50.751Z,8.50
2022-10-31T19:39:41.190Z,8.68
2022-10-31T19:42:29.957Z,8.05
2022-10-31T19:45:15.712Z,8.77
2022-10-31T19:48:01.527Z,9.27
2022-10-31T19:50:47.356Z,8.40
2022-10-31T19:53:34.857Z,7.72
2022-10-31T19:56:22.337Z,8.15
2022-10-31T19:59:08.142Z,8.07
2022-10-31T20:01:54.058Z,8.90
2022-10-31T20:04:39.642Z,8.70
2022-10-31T20:07:26.118Z,7.93
2022-10-31T20:10:12.382Z,8.30
2022-10-31T20:12:58.302Z,8.07
2022-10-31T20:15:43.884Z,8.18
2022-10-31T20:18:30.189Z,7.75
2022-10-31T20:21:22.820Z,7.72
2022-10-31T20:24:10.472Z,8.07
2022-10-31T20:26:56.197Z,7.93
2022-10-31T20:29:41.980Z,6.85
2022-10-31T20:32:28.524Z,7.00
2022-10-31T20:35:14.148Z,7.97
2022-10-31T20:38:00.030Z,7.55
2022-10-31T20:40:46.069Z,6.95
2022-10-31T20:43:33.085Z,7.63
2022-10-31T20:46:27.891Z,6.82
2022-10-31T20:49:13.482Z,7.78
2022-10-31T20:52:00.331Z,7.55
2022-10-31T20:54:45.794Z,8.20
2022-10-31T20:57:31.543Z,8.32
2022-10-31T21:00:17.583Z,7.70
2022-10-31T21:03:03.487Z,7.75
2022-10-31T21:05:57.760Z,6.75
2022-10-31T21:08:43.981Z,6.90
2022-10-31T21:11:29.751Z,6.85
2022-10-31T21:14:15.985Z,7.72
2022-10-31T21:17:01.383Z,7.07
2022-10-31T21:19:46.905Z,6.57
2022-10-31T21:22:35.472Z,6.05
2022-10-31T21:25:21.703Z,7.00
2022-10-31T21:28:08.515Z,6.93
2022-10-31T21:30:54.526Z,6.75
2022-10-31T21:33:40.476Z,6.80
2022-10-31T21:36:26.350Z,7.30
2022-10-31T21:39:12.603Z,7.40
2022-10-31T21:41:58.361Z,6.60
2022-10-31T21:44:44.083Z,7.25
2022-10-31T21:47:29.769Z,6.32
2022-10-31T21:50:16.080Z,6.75
2022-10-31T21:53:21.491Z,6.60
2022-10-31T21:56:07.776Z,6.55
2022-10-31T21:58:54.504Z,6.65
2022-10-31T22:01:41.003Z,7.10
2022-10-31T22:04:27.939Z,6.35
2022-10-31T22:07:13.721Z,7.72
2022-10-31T22:09:59.340Z,7.05
2022-10-31T22:12:44.945Z,7.28
2022-10-31T22:15:31.359Z,7.38
2022-10-31T22:18:17.163Z,7.00
2022-10-31T22:21:15.110Z,6.55
2022-10-31T22:24:03.560Z,6.43
2022-10-31T22:26:52.599Z,6.72
2022-10-31T22:29:38.145Z,6.35
2022-10-31T22:32:23.871Z,6.22
2022-10-31T22:35:09.434Z,6.80
2022-10-31T22:37:55.117Z,6.60
2022-10-31T22:40:40.880Z,7.03
2022-10-31T22:43:26.871Z,6.88
2022-10-31T22:46:15.666Z,6.63
2022-10-31T22:49:04.849Z,6.78
2022-10-31T22:51:52.020Z,6.40
2022-10-31T22:54:37.595Z,6.40
2022-10-31T22:57:23.519Z,5.75
2022-10-31T23:00:09.889Z,5.10
2022-10-31T23:02:55.687Z,5.30
2022-10-31T23:05:41.442Z,5.20
2022-10-31T23:08:28.751Z,4.70
2022-10-31T23:11:17.433Z,4.00
2022-10-31T23:14:15.870Z,3.95
2022-10-31T23:17:01.752Z,3.55
2022-10-31T23:19:47.792Z,3.17
2022-10-31T23:22:33.511Z,2.83
2022-10-31T23:25:37.794Z,2.90
2022-10-31T23:28:23.183Z,2.67
2022-10-31T23:31:08.816Z,2.30
2022-10-31T23:33:54.622Z,3.00
2022-10-31T23:36:40.173Z,2.72
2022-10-31T23:39:25.536Z,2.80
2022-10-31T23:42:11.678Z,3.05
2022-10-31T23:44:57.481Z,3.30
2022-10-31T23:47:43.511Z,2.78
2022-10-31T23:50:29.207Z,2.60
2022-10-31T23:53:14.853Z,2.70
2022-10-31T23:56:00.445Z,2.40
2022-10-31T23:58:46.223Z,2.38
